Warning: Javascript must be enabled to use all the features on this page!


Page Loading - Please Wait...

Click to hideNews Bulletins

Peak Streamflow for the Nation

USGS 04164300 EAST BRANCH COON CREEK AT ARMADA, MI

Macomb County, Michigan
Hydrologic Unit Code 04090003
Latitude  42°50'45", Longitude  82°53'06" NAD27
Drainage area 13.0  square miles
Gage datum 732.78 feet above NAVD88
Output formats
Table
Graph
Tab-separated file
peakfq (watstore) format
Reselect output format
Water
Year
Date Gage
Height
(feet)
Stream-
flow
(cfs)
1959 1959-04-02 5.172 376
1960 1960-03-29 4.95 338
1961 1961-04-26 2.73 69.0
1962 1962-03-12 5.931 3502
1963 1963-05-10 3.53 135
1964 1964-05-09 2.52 62.0
1965 1965-02-10 5.58 506
1966 1966-03-23 3.81 206
1967 1967-04-17 6.14 751
1968 1967-12-21 5.70 632
1969 1969-05-09 4.382 344
1970 1970-04-04 3.88 255
1971 1971-03-15 3.821,2 1602
1972 1972-04-16 4.50 366
1973 1972-12-31 5.55 594
1974 1974-03-05 6.10 740
1975 1975-04-19 6.69 910
1976 1976-03-03 4.73 412
1977 1977-03-29 2.61 80.0
1978 1978-03-23 4.871 400
1979 1979-04-14 4.57 382
1980 1980-04-04 5.06 479
1981 1981-02-23 4.44 356
1982 1981-10-01   5402
1983 1983-05-02 4.97 462
1984 1984-03-21 4.81 430
1985 1985-09-06 5.47 543
1986 1986-03-11 4.79 398
1987 1987-04-05 4.09 268
1988 1987-12-20 4.45 326
1989 1989-06-09 5.155 452
1990 1990-03-11 3.38 163
1991 1991-05-26 4.01 255
1992 1992-04-24 3.87 233
1993 1993-06-21 4.49 333
1994 1994-02-20   2502
1995 1995-03-07 4.291 2752
1996 1996-06-20 4.44 325
1997 1997-03-29 4.88 382
1998 1998-02-18 4.55 332
1999 1999-07-02 4.26 283
2000 2000-09-23 5.77 544
2001 2001-02-09 5.87 564
2002 2001-10-16 4.78 372
2003 2003-06-13 3.93 231
2004 2004-05-23 6.64 713
2005 2005-01-13 4.19 221
2006 2006-02-17 4.34 297
2007 2006-12-01 4.65 349
2008 2008-09-14 5.59 526
2009 2009-02-12 5.11 490
2010 2010-03-14 3.63 206
2011 2011-04-28 4.59 361
2012 2011-11-29 4.45 332
2013 2013-04-12 4.44 330
2014 2014-05-15 4.10 266
2015 2015-05-31 3.76 208
2016 2016-03-28 4.09 264
2017 2017-07-13 4.49 285
2018 2018-02-20 5.10 406
2019 2019-04-26 4.30 250
2020 2020-01-11 5.20 428
2021 2021-06-25 4.71 285
2022 2022-02-17 4.78 294
?
  Peak Gage-Height Qualification Codes.
?
  Peak Streamflow Qualification Codes.